sensor_id;sensor_type;location;lat;lon;timestamp;P1;durP1;ratioP1;P2;durP2;ratioP2
17915;SDS011;9083;49.156;8.982;2024-02-28T00:00:07;19.40;;;9.97;;
17915;SDS011;9083;49.156;8.982;2024-02-28T00:02:35;17.60;;;9.53;;
17915;SDS011;9083;49.156;8.982;2024-02-28T00:05:02;15.20;;;9.17;;
17915;SDS011;9083;49.156;8.982;2024-02-28T00:07:28;17.43;;;9.27;;
17915;SDS011;9083;49.156;8.982;2024-02-28T00:09:55;17.40;;;9.57;;
17915;SDS011;9083;49.156;8.982;2024-02-28T00:12:22;21.80;;;10.50;;
17915;SDS011;9083;49.156;8.982;2024-02-28T00:14:50;19.53;;;9.90;;
17915;SDS011;9083;49.156;8.982;2024-02-28T00:17:17;18.90;;;9.97;;
17915;SDS011;9083;49.156;8.982;2024-02-28T00:19:44;17.77;;;9.60;;
17915;SDS011;9083;49.156;8.982;2024-02-28T00:22:10;25.47;;;9.83;;
17915;SDS011;9083;49.156;8.982;2024-02-28T00:24:36;18.63;;;10.50;;
17915;SDS011;9083;49.156;8.982;2024-02-28T00:27:02;23.30;;;10.30;;
17915;SDS011;9083;49.156;8.982;2024-02-28T00:29:29;20.37;;;9.80;;
17915;SDS011;9083;49.156;8.982;2024-02-28T00:31:55;15.27;;;8.83;;
17915;SDS011;9083;49.156;8.982;2024-02-28T00:34:22;19.97;;;9.23;;
17915;SDS011;9083;49.156;8.982;2024-02-28T00:36:49;15.40;;;9.13;;
17915;SDS011;9083;49.156;8.982;2024-02-28T00:39:15;16.83;;;8.97;;
17915;SDS011;9083;49.156;8.982;2024-02-28T00:41:41;17.43;;;9.43;;
17915;SDS011;9083;49.156;8.982;2024-02-28T00:44:08;18.87;;;9.73;;
17915;SDS011;9083;49.156;8.982;2024-02-28T00:46:34;20.50;;;10.33;;
17915;SDS011;9083;49.156;8.982;2024-02-28T00:49:00;17.50;;;10.47;;
17915;SDS011;9083;49.156;8.982;2024-02-28T00:51:28;27.13;;;12.37;;
17915;SDS011;9083;49.156;8.982;2024-02-28T00:53:54;23.37;;;11.53;;
17915;SDS011;9083;49.156;8.982;2024-02-28T00:56:21;23.10;;;13.07;;
17915;SDS011;9083;49.156;8.982;2024-02-28T00:58:49;26.67;;;12.97;;
17915;SDS011;9083;49.156;8.982;2024-02-28T01:01:15;21.43;;;10.87;;
17915;SDS011;9083;49.156;8.982;2024-02-28T01:03:42;18.43;;;10.87;;
17915;SDS011;9083;49.156;8.982;2024-02-28T01:06:08;16.63;;;9.43;;
17915;SDS011;9083;49.156;8.982;2024-02-28T01:08:35;21.70;;;11.03;;
17915;SDS011;9083;49.156;8.982;2024-02-28T01:11:02;19.00;;;10.87;;
17915;SDS011;9083;49.156;8.982;2024-02-28T01:13:28;21.87;;;10.90;;
17915;SDS011;9083;49.156;8.982;2024-02-28T01:15:54;24.87;;;11.07;;
17915;SDS011;9083;49.156;8.982;2024-02-28T01:18:21;18.57;;;10.57;;
17915;SDS011;9083;49.156;8.982;2024-02-28T01:20:47;19.90;;;10.13;;
17915;SDS011;9083;49.156;8.982;2024-02-28T01:23:15;14.40;;;9.30;;
17915;SDS011;9083;49.156;8.982;2024-02-28T01:25:43;16.17;;;9.57;;
17915;SDS011;9083;49.156;8.982;2024-02-28T01:28:09;17.30;;;9.97;;
17915;SDS011;9083;49.156;8.982;2024-02-28T01:30:35;18.20;;;10.13;;
17915;SDS011;9083;49.156;8.982;2024-02-28T01:33:02;18.37;;;9.60;;
17915;SDS011;9083;49.156;8.982;2024-02-28T01:35:28;18.90;;;10.83;;
17915;SDS011;9083;49.156;8.982;2024-02-28T01:37:54;22.43;;;11.20;;
17915;SDS011;9083;49.156;8.982;2024-02-28T01:40:21;21.93;;;11.37;;
17915;SDS011;9083;49.156;8.982;2024-02-28T01:42:49;16.13;;;10.23;;
17915;SDS011;9083;49.156;8.982;2024-02-28T01:45:15;21.37;;;11.23;;
17915;SDS011;9083;49.156;8.982;2024-02-28T01:47:42;18.10;;;10.43;;
17915;SDS011;9083;49.156;8.982;2024-02-28T01:50:08;17.47;;;10.87;;
17915;SDS011;9083;49.156;8.982;2024-02-28T01:52:35;19.33;;;10.53;;
17915;SDS011;9083;49.156;8.982;2024-02-28T01:55:01;18.13;;;9.87;;
17915;SDS011;9083;49.156;8.982;2024-02-28T01:57:28;18.23;;;11.23;;
17915;SDS011;9083;49.156;8.982;2024-02-28T01:59:55;20.00;;;11.73;;
17915;SDS011;9083;49.156;8.982;2024-02-28T02:02:22;17.17;;;9.47;;
17915;SDS011;9083;49.156;8.982;2024-02-28T02:04:48;12.80;;;8.57;;
17915;SDS011;9083;49.156;8.982;2024-02-28T02:07:17;20.20;;;11.47;;
17915;SDS011;9083;49.156;8.982;2024-02-28T02:09:44;28.80;;;14.07;;
17915;SDS011;9083;49.156;8.982;2024-02-28T02:12:11;29.13;;;13.60;;
17915;SDS011;9083;49.156;8.982;2024-02-28T02:14:37;25.33;;;12.73;;
17915;SDS011;9083;49.156;8.982;2024-02-28T02:17:05;22.23;;;11.13;;
17915;SDS011;9083;49.156;8.982;2024-02-28T02:19:31;20.67;;;10.67;;
17915;SDS011;9083;49.156;8.982;2024-02-28T02:21:58;21.43;;;10.87;;
17915;SDS011;9083;49.156;8.982;2024-02-28T02:24:26;20.10;;;10.80;;
17915;SDS011;9083;49.156;8.982;2024-02-28T02:26:54;17.10;;;9.83;;
17915;SDS011;9083;49.156;8.982;2024-02-28T02:29:20;23.10;;;9.60;;
17915;SDS011;9083;49.156;8.982;2024-02-28T02:31:47;16.30;;;8.93;;
17915;SDS011;9083;49.156;8.982;2024-02-28T02:34:13;17.50;;;8.87;;
17915;SDS011;9083;49.156;8.982;2024-02-28T02:36:39;16.97;;;9.47;;
17915;SDS011;9083;49.156;8.982;2024-02-28T02:39:06;15.00;;;9.20;;
17915;SDS011;9083;49.156;8.982;2024-02-28T02:41:34;17.47;;;9.73;;
17915;SDS011;9083;49.156;8.982;2024-02-28T02:44:00;18.53;;;8.90;;
17915;SDS011;9083;49.156;8.982;2024-02-28T02:46:27;15.87;;;9.17;;
17915;SDS011;9083;49.156;8.982;2024-02-28T02:48:53;16.43;;;9.47;;
17915;SDS011;9083;49.156;8.982;2024-02-28T02:51:19;16.60;;;8.97;;
17915;SDS011;9083;49.156;8.982;2024-02-28T02:53:46;15.30;;;9.13;;
17915;SDS011;9083;49.156;8.982;2024-02-28T02:56:12;17.37;;;9.57;;
17915;SDS011;9083;49.156;8.982;2024-02-28T02:58:40;18.90;;;10.13;;
17915;SDS011;9083;49.156;8.982;2024-02-28T03:01:06;17.33;;;9.40;;
17915;SDS011;9083;49.156;8.982;2024-02-28T03:03:33;19.40;;;9.60;;
17915;SDS011;9083;49.156;8.982;2024-02-28T03:06:00;19.23;;;9.67;;
17915;SDS011;9083;49.156;8.982;2024-02-28T03:08:26;17.30;;;10.00;;
17915;SDS011;9083;49.156;8.982;2024-02-28T03:10:52;19.47;;;9.87;;
17915;SDS011;9083;49.156;8.982;2024-02-28T03:13:19;17.00;;;9.53;;
17915;SDS011;9083;49.156;8.982;2024-02-28T03:15:47;18.80;;;9.90;;
17915;SDS011;9083;49.156;8.982;2024-02-28T03:18:13;18.67;;;10.47;;
17915;SDS011;9083;49.156;8.982;2024-02-28T03:20:39;17.93;;;10.57;;
17915;SDS011;9083;49.156;8.982;2024-02-28T03:23:06;18.97;;;10.17;;
17915;SDS011;9083;49.156;8.982;2024-02-28T03:25:32;18.60;;;10.13;;
17915;SDS011;9083;49.156;8.982;2024-02-28T03:27:58;16.37;;;10.80;;
17915;SDS011;9083;49.156;8.982;2024-02-28T03:30:26;17.43;;;10.23;;
17915;SDS011;9083;49.156;8.982;2024-02-28T03:32:53;15.00;;;9.60;;
17915;SDS011;9083;49.156;8.982;2024-02-28T03:35:20;19.93;;;10.23;;
17915;SDS011;9083;49.156;8.982;2024-02-28T03:37:46;17.83;;;10.30;;
17915;SDS011;9083;49.156;8.982;2024-02-28T03:40:12;20.93;;;10.50;;
17915;SDS011;9083;49.156;8.982;2024-02-28T03:42:39;16.57;;;10.00;;
17915;SDS011;9083;49.156;8.982;2024-02-28T03:48:10;17.53;;;9.70;;
17915;SDS011;9083;49.156;8.982;2024-02-28T03:50:36;20.23;;;10.80;;
17915;SDS011;9083;49.156;8.982;2024-02-28T03:53:02;21.10;;;11.37;;
17915;SDS011;9083;49.156;8.982;2024-02-28T03:55:29;19.20;;;10.90;;
17915;SDS011;9083;49.156;8.982;2024-02-28T03:57:55;22.60;;;10.87;;
17915;SDS011;9083;49.156;8.982;2024-02-28T04:00:21;18.17;;;10.97;;
17915;SDS011;9083;49.156;8.982;2024-02-28T04:02:48;21.83;;;11.67;;
17915;SDS011;9083;49.156;8.982;2024-02-28T04:05:15;22.13;;;10.40;;
17915;SDS011;9083;49.156;8.982;2024-02-28T04:07:42;17.27;;;11.00;;
17915;SDS011;9083;49.156;8.982;2024-02-28T04:10:08;19.27;;;11.43;;
17915;SDS011;9083;49.156;8.982;2024-02-28T04:12:36;24.37;;;10.93;;
17915;SDS011;9083;49.156;8.982;2024-02-28T04:15:02;22.03;;;11.63;;
17915;SDS011;9083;49.156;8.982;2024-02-28T04:17:28;18.97;;;11.77;;
17915;SDS011;9083;49.156;8.982;2024-02-28T04:19:55;20.60;;;10.63;;
17915;SDS011;9083;49.156;8.982;2024-02-28T04:22:24;18.17;;;10.10;;
17915;SDS011;9083;49.156;8.982;2024-02-28T04:24:50;19.57;;;9.73;;
17915;SDS011;9083;49.156;8.982;2024-02-28T04:27:16;18.03;;;10.07;;
17915;SDS011;9083;49.156;8.982;2024-02-28T04:29:42;20.33;;;10.70;;
17915;SDS011;9083;49.156;8.982;2024-02-28T04:32:09;22.77;;;11.37;;
17915;SDS011;9083;49.156;8.982;2024-02-28T04:34:35;52.17;;;12.57;;
17915;SDS011;9083;49.156;8.982;2024-02-28T04:37:02;24.70;;;11.93;;
17915;SDS011;9083;49.156;8.982;2024-02-28T04:39:29;21.23;;;11.20;;
17915;SDS011;9083;49.156;8.982;2024-02-28T04:41:56;19.93;;;10.30;;
17915;SDS011;9083;49.156;8.982;2024-02-28T04:44:22;25.57;;;11.03;;
17915;SDS011;9083;49.156;8.982;2024-02-28T04:46:48;20.10;;;10.57;;
17915;SDS011;9083;49.156;8.982;2024-02-28T04:49:14;20.73;;;11.27;;
17915;SDS011;9083;49.156;8.982;2024-02-28T04:51:41;19.73;;;10.90;;
17915;SDS011;9083;49.156;8.982;2024-02-28T04:54:07;19.17;;;10.23;;
17915;SDS011;9083;49.156;8.982;2024-02-28T04:56:38;17.70;;;10.87;;
17915;SDS011;9083;49.156;8.982;2024-02-28T04:59:05;21.07;;;11.10;;
17915;SDS011;9083;49.156;8.982;2024-02-28T05:01:31;17.30;;;10.30;;
17915;SDS011;9083;49.156;8.982;2024-02-28T05:03:57;23.87;;;11.67;;
17915;SDS011;9083;49.156;8.982;2024-02-28T05:06:23;20.97;;;11.23;;
17915;SDS011;9083;49.156;8.982;2024-02-28T05:08:50;18.43;;;11.20;;
17915;SDS011;9083;49.156;8.982;2024-02-28T05:11:16;20.73;;;11.33;;
17915;SDS011;9083;49.156;8.982;2024-02-28T05:13:44;21.97;;;12.13;;
17915;SDS011;9083;49.156;8.982;2024-02-28T05:16:13;27.80;;;10.93;;
17915;SDS011;9083;49.156;8.982;2024-02-28T05:18:39;25.90;;;12.30;;
17915;SDS011;9083;49.156;8.982;2024-02-28T05:21:06;20.70;;;11.83;;
17915;SDS011;9083;49.156;8.982;2024-02-28T05:23:32;22.40;;;11.43;;
17915;SDS011;9083;49.156;8.982;2024-02-28T05:25:59;24.07;;;11.70;;
17915;SDS011;9083;49.156;8.982;2024-02-28T05:28:28;23.90;;;11.90;;
17915;SDS011;9083;49.156;8.982;2024-02-28T05:30:56;20.60;;;11.50;;
17915;SDS011;9083;49.156;8.982;2024-02-28T05:33:22;20.90;;;11.63;;
17915;SDS011;9083;49.156;8.982;2024-02-28T05:35:49;31.40;;;12.07;;
17915;SDS011;9083;49.156;8.982;2024-02-28T05:38:15;33.73;;;12.57;;
17915;SDS011;9083;49.156;8.982;2024-02-28T05:40:41;27.27;;;11.07;;
17915;SDS011;9083;49.156;8.982;2024-02-28T05:43:08;27.00;;;12.23;;
17915;SDS011;9083;49.156;8.982;2024-02-28T05:45:34;31.13;;;12.93;;
17915;SDS011;9083;49.156;8.982;2024-02-28T05:48:02;58.63;;;14.60;;
17915;SDS011;9083;49.156;8.982;2024-02-28T05:50:28;41.57;;;12.53;;
17915;SDS011;9083;49.156;8.982;2024-02-28T05:52:57;31.90;;;11.97;;
17915;SDS011;9083;49.156;8.982;2024-02-28T05:55:23;26.60;;;11.47;;
17915;SDS011;9083;49.156;8.982;2024-02-28T05:57:51;27.50;;;12.63;;
17915;SDS011;9083;49.156;8.982;2024-02-28T06:00:17;29.17;;;12.20;;
17915;SDS011;9083;49.156;8.982;2024-02-28T06:02:44;32.27;;;14.03;;
17915;SDS011;9083;49.156;8.982;2024-02-28T06:05:11;29.23;;;12.77;;
17915;SDS011;9083;49.156;8.982;2024-02-28T06:07:38;36.13;;;14.27;;
17915;SDS011;9083;49.156;8.982;2024-02-28T06:10:04;34.03;;;13.53;;
17915;SDS011;9083;49.156;8.982;2024-02-28T06:12:30;24.40;;;11.70;;
17915;SDS011;9083;49.156;8.982;2024-02-28T06:14:57;37.03;;;12.47;;
17915;SDS011;9083;49.156;8.982;2024-02-28T06:17:23;30.03;;;12.60;;
17915;SDS011;9083;49.156;8.982;2024-02-28T06:19:49;49.47;;;13.27;;
17915;SDS011;9083;49.156;8.982;2024-02-28T06:22:18;32.63;;;14.10;;
17915;SDS011;9083;49.156;8.982;2024-02-28T06:24:44;36.53;;;13.63;;
17915;SDS011;9083;49.156;8.982;2024-02-28T06:27:10;37.90;;;12.67;;
17915;SDS011;9083;49.156;8.982;2024-02-28T06:29:38;36.40;;;12.70;;
17915;SDS011;9083;49.156;8.982;2024-02-28T06:32:04;44.47;;;13.87;;
17915;SDS011;9083;49.156;8.982;2024-02-28T06:34:30;37.73;;;13.53;;
17915;SDS011;9083;49.156;8.982;2024-02-28T06:36:57;37.87;;;12.60;;
17915;SDS011;9083;49.156;8.982;2024-02-28T06:39:24;33.83;;;12.33;;
17915;SDS011;9083;49.156;8.982;2024-02-28T06:41:51;31.60;;;12.67;;
17915;SDS011;9083;49.156;8.982;2024-02-28T06:44:17;29.17;;;12.37;;
17915;SDS011;9083;49.156;8.982;2024-02-28T06:46:44;36.60;;;13.37;;
17915;SDS011;9083;49.156;8.982;2024-02-28T06:49:10;24.53;;;12.17;;
17915;SDS011;9083;49.156;8.982;2024-02-28T06:51:36;32.17;;;13.50;;
17915;SDS011;9083;49.156;8.982;2024-02-28T06:54:03;30.23;;;13.83;;
17915;SDS011;9083;49.156;8.982;2024-02-28T06:56:31;48.13;;;15.07;;
17915;SDS011;9083;49.156;8.982;2024-02-28T06:58:57;42.10;;;15.03;;
17915;SDS011;9083;49.156;8.982;2024-02-28T07:01:24;39.50;;;14.50;;
17915;SDS011;9083;49.156;8.982;2024-02-28T07:03:50;58.40;;;16.67;;
17915;SDS011;9083;49.156;8.982;2024-02-28T07:06:16;47.20;;;14.90;;
17915;SDS011;9083;49.156;8.982;2024-02-28T07:08:42;47.10;;;15.47;;
17915;SDS011;9083;49.156;8.982;2024-02-28T07:11:12;58.73;;;17.23;;
17915;SDS011;9083;49.156;8.982;2024-02-28T07:13:40;48.43;;;14.87;;
17915;SDS011;9083;49.156;8.982;2024-02-28T07:16:06;64.33;;;15.73;;
17915;SDS011;9083;49.156;8.982;2024-02-28T07:18:33;47.63;;;16.00;;
17915;SDS011;9083;49.156;8.982;2024-02-28T07:20:59;46.47;;;15.23;;
17915;SDS011;9083;49.156;8.982;2024-02-28T07:23:25;36.30;;;14.70;;
17915;SDS011;9083;49.156;8.982;2024-02-28T07:25:51;49.30;;;16.27;;
17915;SDS011;9083;49.156;8.982;2024-02-28T07:28:18;33.83;;;12.53;;
17915;SDS011;9083;49.156;8.982;2024-02-28T07:30:45;53.77;;;14.97;;
17915;SDS011;9083;49.156;8.982;2024-02-28T07:33:13;39.47;;;14.70;;
17915;SDS011;9083;49.156;8.982;2024-02-28T07:35:45;33.53;;;14.57;;
17915;SDS011;9083;49.156;8.982;2024-02-28T07:38:11;30.80;;;12.53;;
17915;SDS011;9083;49.156;8.982;2024-02-28T07:40:38;36.37;;;13.70;;
17915;SDS011;9083;49.156;8.982;2024-02-28T07:43:04;40.20;;;13.03;;
17915;SDS011;9083;49.156;8.982;2024-02-28T07:45:30;23.30;;;11.97;;
17915;SDS011;9083;49.156;8.982;2024-02-28T07:47:58;23.93;;;11.83;;
17915;SDS011;9083;49.156;8.982;2024-02-28T07:50:24;29.23;;;13.10;;
17915;SDS011;9083;49.156;8.982;2024-02-28T07:52:50;36.43;;;13.57;;
17915;SDS011;9083;49.156;8.982;2024-02-28T07:55:19;29.20;;;11.97;;
17915;SDS011;9083;49.156;8.982;2024-02-28T07:57:47;29.30;;;12.60;;
17915;SDS011;9083;49.156;8.982;2024-02-28T08:00:13;26.10;;;11.37;;
17915;SDS011;9083;49.156;8.982;2024-02-28T08:02:41;20.57;;;10.93;;
17915;SDS011;9083;49.156;8.982;2024-02-28T08:05:09;46.77;;;14.83;;
17915;SDS011;9083;49.156;8.982;2024-02-28T08:07:35;24.97;;;12.03;;
17915;SDS011;9083;49.156;8.982;2024-02-28T08:10:01;26.03;;;11.80;;
17915;SDS011;9083;49.156;8.982;2024-02-28T08:12:30;56.63;;;15.27;;
17915;SDS011;9083;49.156;8.982;2024-02-28T08:14:57;28.13;;;13.57;;
17915;SDS011;9083;49.156;8.982;2024-02-28T08:17:23;41.67;;;13.27;;
17915;SDS011;9083;49.156;8.982;2024-02-28T08:19:50;27.73;;;12.40;;
17915;SDS011;9083;49.156;8.982;2024-02-28T08:22:17;23.07;;;12.03;;
17915;SDS011;9083;49.156;8.982;2024-02-28T08:24:44;21.10;;;11.00;;
17915;SDS011;9083;49.156;8.982;2024-02-28T08:27:10;41.23;;;13.43;;
17915;SDS011;9083;49.156;8.982;2024-02-28T08:29:39;26.20;;;11.83;;
17915;SDS011;9083;49.156;8.982;2024-02-28T08:32:08;29.13;;;12.70;;
17915;SDS011;9083;49.156;8.982;2024-02-28T08:34:35;26.33;;;11.77;;
17915;SDS011;9083;49.156;8.982;2024-02-28T08:37:02;19.60;;;10.90;;
17915;SDS011;9083;49.156;8.982;2024-02-28T08:39:29;23.97;;;10.97;;
17915;SDS011;9083;49.156;8.982;2024-02-28T08:41:55;24.73;;;12.57;;
17915;SDS011;9083;49.156;8.982;2024-02-28T08:44:22;39.33;;;13.90;;
17915;SDS011;9083;49.156;8.982;2024-02-28T08:46:48;48.17;;;15.17;;
17915;SDS011;9083;49.156;8.982;2024-02-28T08:49:14;40.63;;;13.30;;
17915;SDS011;9083;49.156;8.982;2024-02-28T08:51:42;33.37;;;12.50;;
17915;SDS011;9083;49.156;8.982;2024-02-28T08:54:08;34.83;;;14.00;;
17915;SDS011;9083;49.156;8.982;2024-02-28T08:56:36;28.53;;;13.67;;
17915;SDS011;9083;49.156;8.982;2024-02-28T08:59:02;35.00;;;13.97;;
17915;SDS011;9083;49.156;8.982;2024-02-28T09:01:28;32.47;;;15.03;;
17915;SDS011;9083;49.156;8.982;2024-02-28T09:03:54;25.30;;;12.50;;
17915;SDS011;9083;49.156;8.982;2024-02-28T09:06:21;25.40;;;12.10;;
17915;SDS011;9083;49.156;8.982;2024-02-28T09:08:47;43.87;;;13.10;;
17915;SDS011;9083;49.156;8.982;2024-02-28T09:11:13;18.80;;;10.30;;
17915;SDS011;9083;49.156;8.982;2024-02-28T09:13:41;25.43;;;12.03;;
17915;SDS011;9083;49.156;8.982;2024-02-28T09:16:07;24.00;;;11.53;;
17915;SDS011;9083;49.156;8.982;2024-02-28T09:18:33;25.23;;;12.13;;
17915;SDS011;9083;49.156;8.982;2024-02-28T09:21:00;34.83;;;12.73;;
17915;SDS011;9083;49.156;8.982;2024-02-28T09:23:26;23.23;;;11.00;;
17915;SDS011;9083;49.156;8.982;2024-02-28T09:25:52;31.57;;;13.03;;
17915;SDS011;9083;49.156;8.982;2024-02-28T09:28:19;28.60;;;12.60;;
17915;SDS011;9083;49.156;8.982;2024-02-28T09:30:47;29.07;;;13.77;;
17915;SDS011;9083;49.156;8.982;2024-02-28T09:33:15;37.80;;;14.30;;
17915;SDS011;9083;49.156;8.982;2024-02-28T09:35:44;30.27;;;13.23;;
17915;SDS011;9083;49.156;8.982;2024-02-28T09:38:10;57.03;;;15.90;;
17915;SDS011;9083;49.156;8.982;2024-02-28T09:40:37;53.87;;;14.23;;
17915;SDS011;9083;49.156;8.982;2024-02-28T09:43:03;39.30;;;14.10;;
17915;SDS011;9083;49.156;8.982;2024-02-28T09:45:30;29.37;;;12.37;;
17915;SDS011;9083;49.156;8.982;2024-02-28T09:47:58;42.47;;;12.77;;
17915;SDS011;9083;49.156;8.982;2024-02-28T09:50:25;26.97;;;12.67;;
17915;SDS011;9083;49.156;8.982;2024-02-28T09:52:52;37.83;;;14.20;;
17915;SDS011;9083;49.156;8.982;2024-02-28T09:55:18;49.73;;;14.93;;
17915;SDS011;9083;49.156;8.982;2024-02-28T09:57:45;24.63;;;12.07;;
17915;SDS011;9083;49.156;8.982;2024-02-28T10:00:12;28.30;;;12.33;;
17915;SDS011;9083;49.156;8.982;2024-02-28T10:02:39;25.80;;;12.10;;
17915;SDS011;9083;49.156;8.982;2024-02-28T10:05:07;23.30;;;11.97;;
17915;SDS011;9083;49.156;8.982;2024-02-28T10:07:34;37.03;;;14.37;;
17915;SDS011;9083;49.156;8.982;2024-02-28T10:10:01;34.37;;;13.43;;
17915;SDS011;9083;49.156;8.982;2024-02-28T10:12:29;41.33;;;13.63;;
17915;SDS011;9083;49.156;8.982;2024-02-28T10:14:55;31.40;;;14.67;;
17915;SDS011;9083;49.156;8.982;2024-02-28T10:17:21;33.83;;;14.17;;
17915;SDS011;9083;49.156;8.982;2024-02-28T10:19:47;33.30;;;12.07;;
17915;SDS011;9083;49.156;8.982;2024-02-28T10:22:15;37.90;;;12.90;;
17915;SDS011;9083;49.156;8.982;2024-02-28T10:24:41;25.10;;;12.50;;
17915;SDS011;9083;49.156;8.982;2024-02-28T10:27:07;23.23;;;11.40;;
17915;SDS011;9083;49.156;8.982;2024-02-28T10:29:34;36.23;;;12.17;;
17915;SDS011;9083;49.156;8.982;2024-02-28T10:32:00;31.07;;;11.63;;
17915;SDS011;9083;49.156;8.982;2024-02-28T10:34:28;55.30;;;14.57;;
17915;SDS011;9083;49.156;8.982;2024-02-28T10:36:54;32.60;;;12.70;;
17915;SDS011;9083;49.156;8.982;2024-02-28T10:39:23;25.00;;;11.97;;
17915;SDS011;9083;49.156;8.982;2024-02-28T10:41:49;26.10;;;13.63;;
17915;SDS011;9083;49.156;8.982;2024-02-28T10:44:16;42.23;;;14.67;;
17915;SDS011;9083;49.156;8.982;2024-02-28T10:46:43;27.10;;;13.37;;
17915;SDS011;9083;49.156;8.982;2024-02-28T10:49:10;27.03;;;11.13;;
17915;SDS011;9083;49.156;8.982;2024-02-28T10:51:36;22.63;;;11.60;;
17915;SDS011;9083;49.156;8.982;2024-02-28T10:54:07;26.67;;;12.10;;
17915;SDS011;9083;49.156;8.982;2024-02-28T10:56:35;25.33;;;11.60;;
17915;SDS011;9083;49.156;8.982;2024-02-28T10:59:02;17.83;;;9.93;;
17915;SDS011;9083;49.156;8.982;2024-02-28T11:01:28;21.13;;;11.10;;
17915;SDS011;9083;49.156;8.982;2024-02-28T11:03:54;22.47;;;11.60;;
17915;SDS011;9083;49.156;8.982;2024-02-28T11:06:22;20.23;;;9.73;;
17915;SDS011;9083;49.156;8.982;2024-02-28T11:08:48;18.07;;;10.20;;
17915;SDS011;9083;49.156;8.982;2024-02-28T11:11:18;24.03;;;10.97;;
17915;SDS011;9083;49.156;8.982;2024-02-28T11:13:52;21.17;;;10.70;;
17915;SDS011;9083;49.156;8.982;2024-02-28T11:16:25;16.77;;;9.50;;
17915;SDS011;9083;49.156;8.982;2024-02-28T11:18:51;15.63;;;9.27;;
17915;SDS011;9083;49.156;8.982;2024-02-28T11:21:18;23.73;;;10.03;;
17915;SDS011;9083;49.156;8.982;2024-02-28T11:23:45;17.83;;;9.43;;
17915;SDS011;9083;49.156;8.982;2024-02-28T11:26:12;18.30;;;9.03;;
17915;SDS011;9083;49.156;8.982;2024-02-28T11:28:38;18.47;;;9.50;;
17915;SDS011;9083;49.156;8.982;2024-02-28T11:31:07;28.27;;;9.37;;
17915;SDS011;9083;49.156;8.982;2024-02-28T11:33:33;17.47;;;8.57;;
17915;SDS011;9083;49.156;8.982;2024-02-28T11:35:59;14.07;;;6.60;;
17915;SDS011;9083;49.156;8.982;2024-02-28T11:38:28;10.00;;;6.03;;
17915;SDS011;9083;49.156;8.982;2024-02-28T11:40:54;11.93;;;6.83;;
17915;SDS011;9083;49.156;8.982;2024-02-28T11:43:21;11.17;;;6.07;;
17915;SDS011;9083;49.156;8.982;2024-02-28T11:45:47;24.40;;;8.13;;
17915;SDS011;9083;49.156;8.982;2024-02-28T11:48:14;10.73;;;6.93;;
17915;SDS011;9083;49.156;8.982;2024-02-28T11:50:41;10.10;;;5.83;;
17915;SDS011;9083;49.156;8.982;2024-02-28T11:53:07;11.67;;;6.20;;
17915;SDS011;9083;49.156;8.982;2024-02-28T11:55:34;12.57;;;7.10;;
17915;SDS011;9083;49.156;8.982;2024-02-28T11:58:01;11.13;;;5.97;;
17915;SDS011;9083;49.156;8.982;2024-02-28T12:00:27;9.37;;;6.10;;
17915;SDS011;9083;49.156;8.982;2024-02-28T12:03:03;9.43;;;6.33;;
17915;SDS011;9083;49.156;8.982;2024-02-28T12:05:31;11.93;;;6.60;;
17915;SDS011;9083;49.156;8.982;2024-02-28T12:07:57;9.73;;;6.23;;
17915;SDS011;9083;49.156;8.982;2024-02-28T12:10:24;8.17;;;5.87;;
17915;SDS011;9083;49.156;8.982;2024-02-28T12:12:51;13.77;;;5.77;;
17915;SDS011;9083;49.156;8.982;2024-02-28T12:15:17;10.63;;;7.20;;
17915;SDS011;9083;49.156;8.982;2024-02-28T12:17:43;9.00;;;6.20;;
17915;SDS011;9083;49.156;8.982;2024-02-28T12:20:10;19.73;;;7.33;;
17915;SDS011;9083;49.156;8.982;2024-02-28T12:22:37;18.43;;;6.73;;
17915;SDS011;9083;49.156;8.982;2024-02-28T12:25:04;15.00;;;6.63;;
17915;SDS011;9083;49.156;8.982;2024-02-28T12:27:31;19.20;;;5.50;;
17915;SDS011;9083;49.156;8.982;2024-02-28T12:29:58;10.90;;;6.23;;
17915;SDS011;9083;49.156;8.982;2024-02-28T12:32:24;18.17;;;6.97;;
17915;SDS011;9083;49.156;8.982;2024-02-28T12:34:50;12.60;;;6.73;;
17915;SDS011;9083;49.156;8.982;2024-02-28T12:37:16;10.17;;;5.83;;
17915;SDS011;9083;49.156;8.982;2024-02-28T12:39:45;9.93;;;6.10;;
17915;SDS011;9083;49.156;8.982;2024-02-28T12:42:12;22.93;;;6.93;;
17915;SDS011;9083;49.156;8.982;2024-02-28T12:44:39;9.33;;;4.60;;
17915;SDS011;9083;49.156;8.982;2024-02-28T12:47:10;40.20;;;7.23;;
17915;SDS011;9083;49.156;8.982;2024-02-28T12:49:37;10.33;;;5.93;;
17915;SDS011;9083;49.156;8.982;2024-02-28T12:52:03;28.23;;;8.43;;
17915;SDS011;9083;49.156;8.982;2024-02-28T12:54:29;9.37;;;6.27;;
17915;SDS011;9083;49.156;8.982;2024-02-28T12:56:57;25.77;;;7.93;;
17915;SDS011;9083;49.156;8.982;2024-02-28T12:59:24;15.23;;;6.20;;
17915;SDS011;9083;49.156;8.982;2024-02-28T13:01:50;35.90;;;8.53;;
17915;SDS011;9083;49.156;8.982;2024-02-28T13:04:17;15.03;;;6.80;;
17915;SDS011;9083;49.156;8.982;2024-02-28T13:06:43;10.73;;;6.07;;
17915;SDS011;9083;49.156;8.982;2024-02-28T13:09:09;39.83;;;7.67;;
17915;SDS011;9083;49.156;8.982;2024-02-28T13:11:38;11.50;;;6.70;;
17915;SDS011;9083;49.156;8.982;2024-02-28T13:14:06;10.43;;;6.13;;
17915;SDS011;9083;49.156;8.982;2024-02-28T13:16:33;14.80;;;6.53;;
17915;SDS011;9083;49.156;8.982;2024-02-28T13:19:00;20.57;;;7.23;;
17915;SDS011;9083;49.156;8.982;2024-02-28T13:21:26;17.67;;;7.47;;
17915;SDS011;9083;49.156;8.982;2024-02-28T13:23:52;24.93;;;8.10;;
17915;SDS011;9083;49.156;8.982;2024-02-28T13:26:18;31.73;;;8.40;;
17915;SDS011;9083;49.156;8.982;2024-02-28T13:28:45;12.53;;;6.27;;
17915;SDS011;9083;49.156;8.982;2024-02-28T13:31:13;10.57;;;5.93;;
17915;SDS011;9083;49.156;8.982;2024-02-28T13:33:39;23.60;;;7.20;;
17915;SDS011;9083;49.156;8.982;2024-02-28T13:36:06;11.43;;;6.30;;
17915;SDS011;9083;49.156;8.982;2024-02-28T13:38:33;11.10;;;6.60;;
17915;SDS011;9083;49.156;8.982;2024-02-28T13:40:59;12.77;;;6.53;;
17915;SDS011;9083;49.156;8.982;2024-02-28T13:43:25;13.60;;;7.53;;
17915;SDS011;9083;49.156;8.982;2024-02-28T13:45:52;12.67;;;7.03;;
17915;SDS011;9083;49.156;8.982;2024-02-28T13:48:22;12.30;;;7.37;;
17915;SDS011;9083;49.156;8.982;2024-02-28T13:50:49;11.73;;;6.03;;
17915;SDS011;9083;49.156;8.982;2024-02-28T13:53:16;10.80;;;6.30;;
17915;SDS011;9083;49.156;8.982;2024-02-28T13:55:42;9.10;;;6.10;;
17915;SDS011;9083;49.156;8.982;2024-02-28T13:58:10;9.97;;;5.93;;
17915;SDS011;9083;49.156;8.982;2024-02-28T14:00:36;12.27;;;6.63;;
17915;SDS011;9083;49.156;8.982;2024-02-28T14:03:03;12.87;;;6.27;;
17915;SDS011;9083;49.156;8.982;2024-02-28T14:05:31;10.40;;;6.43;;
17915;SDS011;9083;49.156;8.982;2024-02-28T14:07:57;11.07;;;6.27;;
17915;SDS011;9083;49.156;8.982;2024-02-28T14:10:24;9.80;;;6.30;;
17915;SDS011;9083;49.156;8.982;2024-02-28T14:12:50;11.80;;;6.40;;
17915;SDS011;9083;49.156;8.982;2024-02-28T14:15:17;10.47;;;5.90;;
17915;SDS011;9083;49.156;8.982;2024-02-28T14:17:44;9.30;;;5.93;;
17915;SDS011;9083;49.156;8.982;2024-02-28T14:20:10;9.47;;;5.83;;
17915;SDS011;9083;49.156;8.982;2024-02-28T14:22:39;14.83;;;7.83;;
17915;SDS011;9083;49.156;8.982;2024-02-28T14:25:07;18.73;;;7.17;;
17915;SDS011;9083;49.156;8.982;2024-02-28T14:27:33;12.00;;;6.87;;
17915;SDS011;9083;49.156;8.982;2024-02-28T14:30:00;13.63;;;7.20;;
17915;SDS011;9083;49.156;8.982;2024-02-28T14:32:26;12.73;;;6.97;;
17915;SDS011;9083;49.156;8.982;2024-02-28T14:34:53;11.57;;;6.80;;
17915;SDS011;9083;49.156;8.982;2024-02-28T14:37:19;19.13;;;7.47;;
17915;SDS011;9083;49.156;8.982;2024-02-28T14:39:46;29.00;;;7.70;;